createdAt,value
2018-09-27T00:00:53.962Z,6.87
2018-09-27T00:03:22.813Z,5.30
2018-09-27T00:05:51.647Z,5.80
2018-09-27T00:08:21.625Z,2.23
2018-09-27T00:10:50.921Z,4.23
2018-09-27T00:13:20.185Z,5.30
2018-09-27T00:15:49.353Z,3.60
2018-09-27T00:18:18.349Z,3.63
2018-09-27T00:20:47.225Z,2.93
2018-09-27T00:23:16.077Z,3.30
2018-09-27T00:25:44.970Z,3.97
2018-09-27T00:28:13.915Z,5.43
2018-09-27T00:30:42.893Z,2.93
2018-09-27T00:33:12.110Z,2.43
2018-09-27T00:35:42.227Z,6.70
2018-09-27T00:38:11.084Z,3.40
2018-09-27T00:40:40.062Z,6.97
2018-09-27T00:43:09.077Z,3.63
2018-09-27T00:45:42.495Z,6.10
2018-09-27T00:48:12.467Z,4.87
2018-09-27T00:50:41.609Z,2.70
2018-09-27T00:53:10.779Z,3.30
2018-09-27T00:55:40.028Z,4.47
2018-09-27T00:58:09.421Z,2.57
2018-09-27T01:00:38.394Z,5.13
2018-09-27T01:03:08.595Z,2.37
2018-09-27T01:05:38.252Z,3.37
2018-09-27T01:08:07.765Z,3.60
2018-09-27T01:10:36.640Z,3.57
2018-09-27T01:13:05.597Z,4.70
2018-09-27T01:15:34.369Z,3.07
2018-09-27T01:18:03.304Z,4.57
2018-09-27T01:20:32.084Z,2.93
2018-09-27T01:23:00.986Z,8.00
2018-09-27T01:25:29.982Z,2.27
2018-09-27T01:27:58.826Z,4.30
2018-09-27T01:30:27.847Z,7.90
2018-09-27T01:32:56.754Z,2.33
2018-09-27T01:35:25.619Z,7.40
2018-09-27T01:37:54.315Z,5.60
2018-09-27T01:40:23.218Z,4.57
2018-09-27T01:42:52.189Z,3.50
2018-09-27T01:45:21.453Z,4.27
2018-09-27T01:47:50.526Z,6.27
2018-09-27T01:50:19.493Z,2.73
2018-09-27T01:52:48.451Z,2.63
2018-09-27T01:55:17.403Z,7.40
2018-09-27T01:57:46.043Z,7.40
2018-09-27T02:00:14.899Z,3.27
2018-09-27T02:02:43.547Z,6.70
2018-09-27T02:05:12.409Z,3.03
2018-09-27T02:07:41.363Z,3.20
2018-09-27T02:10:10.346Z,2.57
2018-09-27T02:12:39.193Z,8.23
2018-09-27T02:15:08.295Z,5.87
2018-09-27T02:17:37.079Z,4.60
2018-09-27T02:20:06.323Z,6.97
2018-09-27T02:22:35.225Z,5.27
2018-09-27T02:25:04.143Z,5.07
2018-09-27T02:27:32.980Z,3.63
2018-09-27T02:30:02.090Z,4.87
2018-09-27T02:32:30.942Z,6.80
2018-09-27T02:34:59.926Z,4.30
2018-09-27T02:37:28.830Z,3.87
2018-09-27T02:39:57.654Z,6.30
2018-09-27T02:42:26.632Z,6.37
2018-09-27T02:44:55.539Z,3.73
2018-09-27T02:47:24.326Z,5.13
2018-09-27T02:49:53.174Z,4.37
2018-09-27T02:52:22.184Z,3.73
2018-09-27T02:54:51.074Z,3.53
2018-09-27T02:57:19.834Z,3.77
2018-09-27T02:59:48.597Z,4.83
2018-09-27T03:02:17.924Z,8.93
2018-09-27T03:04:46.832Z,7.23
2018-09-27T03:07:15.402Z,7.20
2018-09-27T03:09:44.000Z,6.13
2018-09-27T03:12:12.617Z,3.50
2018-09-27T03:14:41.476Z,3.53
2018-09-27T03:17:10.060Z,7.53
2018-09-27T03:19:39.058Z,9.07
2018-09-27T03:22:07.828Z,6.90
2018-09-27T03:24:36.700Z,5.93
2018-09-27T03:27:05.708Z,5.30
2018-09-27T03:29:34.618Z,5.77
2018-09-27T03:32:03.781Z,4.33
2018-09-27T03:34:33.262Z,4.67
2018-09-27T03:37:02.315Z,6.03
2018-09-27T03:39:31.319Z,5.57
2018-09-27T03:42:00.239Z,9.33
2018-09-27T03:44:29.082Z,8.37
2018-09-27T03:46:58.127Z,7.87
2018-09-27T03:49:27.080Z,9.27
2018-09-27T03:51:55.956Z,6.23
2018-09-27T03:54:24.797Z,6.23
2018-09-27T03:56:53.662Z,7.30
2018-09-27T03:59:22.669Z,7.00
2018-09-27T04:01:51.578Z,5.07
2018-09-27T04:04:20.372Z,8.53
2018-09-27T04:06:49.558Z,5.50
2018-09-27T04:09:18.427Z,6.07
2018-09-27T04:11:47.286Z,9.43
2018-09-27T04:14:16.240Z,5.07
2018-09-27T04:16:44.971Z,4.80
2018-09-27T04:19:14.080Z,6.77
2018-09-27T04:21:43.113Z,7.77
2018-09-27T04:24:12.203Z,7.57
2018-09-27T04:26:40.967Z,7.47
2018-09-27T04:29:09.713Z,7.33
2018-09-27T04:31:38.378Z,9.43
2018-09-27T04:34:07.479Z,9.00
2018-09-27T04:36:36.106Z,6.17
2018-09-27T04:39:07.127Z,6.40
2018-09-27T04:41:39.539Z,5.40
2018-09-27T04:44:08.665Z,9.47
2018-09-27T04:46:37.813Z,9.83
2018-09-27T04:49:06.997Z,6.30
2018-09-27T04:51:35.900Z,8.73
2018-09-27T04:54:04.803Z,6.80
2018-09-27T04:56:33.694Z,8.37
2018-09-27T04:59:02.702Z,9.03
2018-09-27T05:01:31.362Z,9.43
2018-09-27T05:03:59.957Z,7.33
2018-09-27T05:06:28.632Z,7.53
2018-09-27T05:08:57.437Z,7.17
2018-09-27T05:11:26.346Z,7.50
2018-09-27T05:13:55.096Z,10.30
2018-09-27T05:16:28.191Z,6.80
2018-09-27T05:18:57.064Z,7.90
2018-09-27T05:21:25.954Z,8.50
2018-09-27T05:23:54.981Z,6.97
2018-09-27T05:26:23.981Z,12.00
2018-09-27T05:28:52.948Z,9.47
2018-09-27T05:31:21.774Z,10.97
2018-09-27T05:33:50.740Z,7.83
2018-09-27T05:36:19.647Z,5.13
2018-09-27T05:38:48.278Z,6.53
2018-09-27T05:41:17.160Z,5.93
2018-09-27T05:43:46.092Z,7.77
2018-09-27T05:46:15.085Z,11.93
2018-09-27T05:48:44.102Z,6.90
2018-09-27T05:51:13.144Z,7.27
2018-09-27T05:53:41.717Z,10.30
2018-09-27T05:56:10.318Z,10.00
2018-09-27T05:58:38.910Z,12.77
2018-09-27T06:01:07.574Z,10.07
2018-09-27T06:03:36.221Z,9.53
2018-09-27T06:06:05.092Z,11.00
2018-09-27T06:08:33.924Z,9.07
2018-09-27T06:11:03.090Z,12.40
2018-09-27T06:13:31.977Z,10.37
2018-09-27T06:16:00.905Z,10.63
2018-09-27T06:18:29.863Z,11.53
2018-09-27T06:20:59.130Z,14.43
2018-09-27T06:23:28.099Z,12.53
2018-09-27T06:25:57.108Z,9.57
2018-09-27T06:28:26.096Z,15.77
2018-09-27T06:30:55.067Z,11.40
2018-09-27T06:33:24.034Z,15.57
2018-09-27T06:35:52.921Z,8.60
2018-09-27T06:38:22.061Z,9.30
2018-09-27T06:40:51.527Z,15.10
2018-09-27T06:43:20.516Z,13.27
2018-09-27T06:45:49.557Z,9.40
2018-09-27T06:48:18.787Z,13.13
2018-09-27T06:50:47.591Z,11.20
2018-09-27T06:53:16.640Z,12.97
2018-09-27T06:55:45.837Z,18.00
2018-09-27T06:58:14.684Z,14.83
2018-09-27T07:00:43.601Z,15.67
2018-09-27T07:03:12.466Z,15.50
2018-09-27T07:05:41.607Z,15.53
2018-09-27T07:08:10.341Z,12.63
2018-09-27T07:10:39.654Z,15.87
2018-09-27T07:13:14.804Z,15.03
2018-09-27T07:15:44.502Z,16.03
2018-09-27T07:18:13.728Z,19.23
2018-09-27T07:20:42.881Z,13.67
2018-09-27T07:23:12.154Z,18.07
2018-09-27T07:25:41.252Z,10.87
2018-09-27T07:28:10.288Z,16.17
2018-09-27T07:30:39.924Z,12.03
2018-09-27T07:33:09.025Z,13.50
2018-09-27T07:35:37.771Z,13.10
2018-09-27T07:38:06.931Z,17.17
2018-09-27T07:40:36.072Z,11.63
2018-09-27T07:43:04.983Z,13.03
2018-09-27T07:45:34.221Z,13.30
2018-09-27T07:48:02.869Z,11.37
2018-09-27T07:50:32.170Z,15.00
2018-09-27T07:53:01.063Z,11.13
2018-09-27T07:55:29.987Z,14.57
2018-09-27T07:57:58.717Z,12.13
2018-09-27T08:00:27.609Z,13.17
2018-09-27T08:02:56.431Z,20.97
2018-09-27T08:05:25.112Z,9.27
2018-09-27T08:07:54.245Z,10.30
2018-09-27T08:10:23.396Z,12.70
2018-09-27T08:12:52.226Z,12.87
2018-09-27T08:15:21.155Z,8.97
2018-09-27T08:17:50.056Z,14.23
2018-09-27T08:20:19.191Z,11.40
2018-09-27T08:22:48.034Z,10.53
2018-09-27T08:25:17.378Z,11.63
2018-09-27T08:27:46.336Z,10.17
2018-09-27T08:30:15.380Z,11.63
2018-09-27T08:32:44.300Z,10.67
2018-09-27T08:35:13.101Z,13.63
2018-09-27T08:37:42.043Z,8.17
2018-09-27T08:40:11.264Z,9.10
2018-09-27T08:42:40.112Z,9.80
2018-09-27T08:45:09.343Z,9.07
2018-09-27T08:47:37.830Z,7.63
2018-09-27T08:50:06.822Z,8.93
2018-09-27T08:52:36.005Z,8.93
2018-09-27T08:55:05.053Z,9.20
2018-09-27T08:57:33.842Z,9.87
2018-09-27T09:00:03.318Z,11.77
2018-09-27T09:02:32.610Z,10.17
2018-09-27T09:05:01.476Z,10.93
2018-09-27T09:07:30.334Z,12.17
2018-09-27T09:09:58.928Z,11.40
2018-09-27T09:12:27.475Z,7.90
2018-09-27T09:14:56.650Z,7.47
2018-09-27T09:17:25.700Z,7.93
2018-09-27T09:19:58.092Z,7.57
2018-09-27T09:22:27.062Z,5.00
2018-09-27T09:24:56.070Z,9.53
2018-09-27T09:27:25.132Z,8.00
2018-09-27T09:29:53.902Z,7.77
2018-09-27T09:32:23.088Z,5.27
2018-09-27T09:34:51.942Z,6.30
2018-09-27T09:37:20.743Z,5.73
2018-09-27T09:39:49.551Z,6.50
2018-09-27T09:42:18.625Z,4.47
2018-09-27T09:44:47.738Z,8.90
2018-09-27T09:47:16.557Z,7.87
2018-09-27T09:49:45.599Z,7.27
2018-09-27T09:52:14.396Z,6.83
2018-09-27T09:54:43.115Z,4.93
2018-09-27T09:57:12.428Z,6.73
2018-09-27T09:59:41.390Z,3.93
2018-09-27T10:02:10.338Z,5.97
2018-09-27T10:04:39.104Z,8.70
2018-09-27T10:07:08.043Z,4.13
2018-09-27T10:09:36.818Z,6.73
2018-09-27T10:12:05.722Z,6.37
2018-09-27T10:14:34.650Z,5.80
2018-09-27T10:17:03.625Z,7.07
2018-09-27T10:19:32.593Z,4.73
2018-09-27T10:22:01.615Z,3.73
2018-09-27T10:24:30.381Z,4.03
2018-09-27T10:26:59.163Z,4.67
2018-09-27T10:29:28.100Z,2.67
2018-09-27T10:31:57.097Z,2.93
2018-09-27T10:34:26.274Z,4.67
2018-09-27T10:36:55.574Z,5.77
2018-09-27T10:39:24.531Z,4.63
2018-09-27T10:41:53.465Z,3.30
2018-09-27T10:44:22.640Z,3.20
2018-09-27T10:46:51.593Z,2.53
2018-09-27T10:49:20.506Z,6.37
2018-09-27T10:51:49.299Z,10.73
2018-09-27T10:54:18.118Z,6.63
2018-09-27T10:56:47.135Z,5.90
2018-09-27T10:59:15.976Z,2.37
2018-09-27T11:01:45.018Z,6.87
2018-09-27T11:04:14.061Z,6.20
2018-09-27T11:06:43.104Z,3.87
2018-09-27T11:09:12.090Z,5.73
2018-09-27T11:11:40.814Z,3.40
2018-09-27T11:14:09.802Z,3.67
2018-09-27T11:16:38.739Z,2.33
2018-09-27T11:19:07.892Z,4.47
2018-09-27T11:21:36.820Z,1.92
2018-09-27T11:24:05.817Z,2.67
2018-09-27T11:26:34.695Z,2.50
2018-09-27T11:29:14.701Z,2.13
2018-09-27T11:31:48.685Z,1.97
2018-09-27T11:34:17.572Z,3.03
2018-09-27T11:36:46.556Z,2.00
2018-09-27T11:39:15.435Z,3.95
2018-09-27T11:41:44.488Z,2.73
2018-09-27T11:44:13.648Z,2.30
2018-09-27T11:46:42.451Z,2.23
2018-09-27T11:49:11.254Z,2.23
2018-09-27T11:51:39.991Z,1.57
2018-09-27T11:54:08.800Z,2.60
2018-09-27T11:56:38.041Z,1.80
2018-09-27T11:59:07.354Z,2.00
2018-09-27T12:01:36.189Z,1.27
2018-09-27T12:04:05.001Z,2.20
2018-09-27T12:06:34.027Z,4.47
2018-09-27T12:09:03.306Z,2.27
2018-09-27T12:11:32.161Z,1.87
2018-09-27T12:14:01.040Z,2.35
2018-09-27T12:16:30.066Z,4.62
2018-09-27T12:18:59.133Z,4.95
2018-09-27T12:21:28.032Z,6.03
2018-09-27T12:23:57.010Z,7.58
2018-09-27T12:26:25.823Z,2.70
2018-09-27T12:28:54.696Z,5.97
2018-09-27T12:31:23.629Z,1.67
2018-09-27T12:33:52.639Z,2.15
2018-09-27T12:36:21.718Z,2.20
2018-09-27T12:38:50.872Z,4.12
2018-09-27T12:41:19.805Z,1.95
2018-09-27T12:43:48.658Z,3.58
2018-09-27T12:46:21.416Z,1.40
2018-09-27T12:48:50.351Z,2.70
2018-09-27T12:51:19.510Z,3.80
2018-09-27T12:53:48.368Z,2.20
2018-09-27T12:56:17.309Z,2.37
2018-09-27T12:58:46.568Z,5.10
2018-09-27T13:01:15.714Z,3.55
2018-09-27T13:03:47.976Z,2.75
2018-09-27T13:06:16.909Z,1.30
2018-09-27T13:08:45.718Z,3.33
2018-09-27T13:11:14.597Z,1.70
2018-09-27T13:13:43.647Z,1.65
2018-09-27T13:16:12.761Z,2.50
2018-09-27T13:18:41.833Z,1.98
2018-09-27T13:21:10.885Z,1.40
2018-09-27T13:23:39.739Z,2.10
2018-09-27T13:26:08.914Z,3.80
2018-09-27T13:28:38.383Z,2.17
2018-09-27T13:31:07.390Z,2.98
2018-09-27T13:33:36.219Z,4.80
2018-09-27T13:36:05.026Z,1.85
2018-09-27T13:38:33.783Z,1.50
2018-09-27T13:41:02.731Z,4.80
2018-09-27T13:43:31.716Z,1.55
2018-09-27T13:46:10.406Z,1.40
2018-09-27T13:48:39.304Z,1.90
2018-09-27T13:51:08.375Z,2.90
2018-09-27T13:53:37.529Z,1.27
2018-09-27T13:56:06.570Z,2.67
2018-09-27T13:58:35.683Z,1.87
2018-09-27T14:01:08.553Z,2.58
2018-09-27T14:03:37.695Z,5.58
2018-09-27T14:06:06.561Z,4.10
2018-09-27T14:08:35.278Z,3.42
2018-09-27T14:11:04.069Z,2.47
2018-09-27T14:13:33.391Z,2.50
2018-09-27T14:16:02.619Z,1.70
2018-09-27T14:18:31.522Z,2.00
2018-09-27T14:21:04.407Z,4.20
2018-09-27T14:23:33.517Z,4.78
2018-09-27T14:26:02.486Z,1.60
2018-09-27T14:28:31.476Z,1.50
2018-09-27T14:31:00.316Z,1.40
2018-09-27T14:33:29.174Z,2.02
2018-09-27T14:35:57.764Z,1.30
2018-09-27T14:38:26.830Z,1.40
2018-09-27T14:40:55.784Z,1.50
2018-09-27T14:43:24.776Z,1.92
2018-09-27T14:45:54.062Z,2.17
2018-09-27T14:48:22.921Z,1.40
2018-09-27T14:50:51.521Z,2.45
2018-09-27T14:53:20.427Z,2.22
2018-09-27T14:55:49.328Z,1.77
2018-09-27T14:58:17.898Z,2.75
2018-09-27T15:00:46.945Z,2.52
2018-09-27T15:03:15.787Z,2.37
2018-09-27T15:05:44.423Z,1.85
2018-09-27T15:08:13.365Z,1.40
2018-09-27T15:10:42.015Z,1.60
2018-09-27T15:13:10.818Z,5.20
2018-09-27T15:15:39.634Z,1.85
2018-09-27T15:18:08.494Z,2.90
2018-09-27T15:20:37.522Z,2.08
2018-09-27T15:23:06.381Z,1.80
2018-09-27T15:25:35.463Z,1.62
2018-09-27T15:28:04.430Z,2.95
2018-09-27T15:30:34.492Z,3.15
2018-09-27T15:33:03.368Z,1.20
2018-09-27T15:35:32.518Z,1.35
2018-09-27T15:38:01.711Z,1.35
2018-09-27T15:40:30.786Z,1.27
2018-09-27T15:42:59.718Z,1.82
2018-09-27T15:45:28.818Z,1.47
2018-09-27T15:47:57.400Z,1.10
2018-09-27T15:50:26.532Z,2.85
2018-09-27T15:52:55.629Z,2.37
2018-09-27T15:55:24.963Z,3.58
2018-09-27T15:57:53.955Z,1.37
2018-09-27T16:00:22.763Z,3.65
2018-09-27T16:02:52.706Z,2.72
2018-09-27T16:05:21.871Z,3.85
2018-09-27T16:07:51.143Z,3.12
2018-09-27T16:10:20.173Z,3.33
2018-09-27T16:12:49.010Z,1.42
2018-09-27T16:15:17.846Z,1.60
2018-09-27T16:17:46.870Z,1.85
2018-09-27T16:20:15.591Z,2.47
2018-09-27T16:22:44.485Z,1.80
2018-09-27T16:25:13.276Z,6.37
2018-09-27T16:27:42.061Z,1.50
2018-09-27T16:30:10.687Z,3.85
2018-09-27T16:32:39.541Z,1.75
2018-09-27T16:35:08.559Z,2.12
2018-09-27T16:37:37.375Z,1.37
2018-09-27T16:40:06.846Z,2.05
2018-09-27T16:42:35.749Z,4.58
2018-09-27T16:45:04.794Z,2.10
2018-09-27T16:47:33.789Z,1.10
2018-09-27T16:50:02.696Z,0.93
2018-09-27T16:52:31.620Z,1.75
2018-09-27T16:55:00.517Z,1.83
2018-09-27T16:57:29.290Z,1.30
2018-09-27T16:59:58.294Z,1.30
2018-09-27T17:02:27.277Z,1.27
2018-09-27T17:05:00.034Z,1.27
2018-09-27T17:07:29.686Z,2.40
2018-09-27T17:09:58.615Z,1.30
2018-09-27T17:12:27.671Z,1.53
2018-09-27T17:14:56.666Z,1.40
2018-09-27T17:17:25.452Z,1.40
2018-09-27T17:19:54.303Z,2.10
2018-09-27T17:22:23.305Z,1.40
2018-09-27T17:24:52.281Z,1.33
2018-09-27T17:27:21.124Z,2.00
2018-09-27T17:29:50.305Z,1.80
2018-09-27T17:32:19.516Z,1.27
2018-09-27T17:34:48.357Z,1.70
2018-09-27T17:37:17.168Z,2.30
2018-09-27T17:39:46.196Z,1.50
2018-09-27T17:42:15.259Z,2.73
2018-09-27T17:44:44.147Z,1.47
2018-09-27T17:47:12.861Z,1.60
2018-09-27T17:49:46.075Z,1.70
2018-09-27T17:52:14.893Z,2.50
2018-09-27T17:54:43.698Z,1.37
2018-09-27T17:57:12.848Z,2.10
2018-09-27T17:59:41.782Z,1.30
2018-09-27T18:02:10.918Z,1.20
2018-09-27T18:04:39.728Z,1.77
2018-09-27T18:07:08.652Z,2.07
2018-09-27T18:09:37.695Z,4.00
2018-09-27T18:12:06.433Z,1.03
2018-09-27T18:14:35.482Z,1.30
2018-09-27T18:17:05.455Z,1.57
2018-09-27T18:19:34.799Z,1.70
2018-09-27T18:22:03.691Z,1.03
2018-09-27T18:24:32.833Z,1.50
2018-09-27T18:27:05.633Z,1.30
2018-09-27T18:29:34.726Z,3.23
2018-09-27T18:32:03.543Z,2.97
2018-09-27T18:34:32.584Z,1.67
2018-09-27T18:37:01.641Z,1.70
2018-09-27T18:39:30.529Z,2.17
2018-09-27T18:41:59.375Z,2.40
2018-09-27T18:44:28.328Z,1.70
2018-09-27T18:46:57.261Z,2.27
2018-09-27T18:49:26.262Z,2.03
2018-09-27T18:51:59.159Z,2.13
2018-09-27T18:54:28.591Z,1.50
2018-09-27T18:56:57.580Z,3.23
2018-09-27T18:59:26.381Z,1.70
2018-09-27T19:02:04.667Z,1.70
2018-09-27T19:04:37.800Z,2.50
2018-09-27T19:07:12.451Z,1.90
2018-09-27T19:09:41.427Z,2.07
2018-09-27T19:12:10.258Z,1.90
2018-09-27T19:14:39.137Z,5.40
2018-09-27T19:17:08.168Z,2.13
2018-09-27T19:19:36.936Z,4.40
2018-09-27T19:22:06.013Z,2.80
2018-09-27T19:24:34.908Z,3.20
2018-09-27T19:27:05.937Z,3.73
2018-09-27T19:29:34.848Z,6.03
2018-09-27T19:32:04.062Z,4.17
2018-09-27T19:34:35.110Z,5.17
2018-09-27T19:37:03.966Z,6.53
2018-09-27T19:39:32.894Z,9.40
2018-09-27T19:42:01.987Z,3.30
2018-09-27T19:44:30.840Z,4.67
2018-09-27T19:46:59.650Z,3.30
2018-09-27T19:49:45.865Z,5.60
2018-09-27T19:52:22.599Z,6.00
2018-09-27T19:55:09.658Z,5.13
2018-09-27T19:57:42.030Z,5.50
2018-09-27T20:00:11.143Z,3.80
2018-09-27T20:02:45.139Z,3.37
2018-09-27T20:05:13.990Z,7.47
2018-09-27T20:07:46.181Z,4.43
2018-09-27T20:10:15.111Z,3.80
2018-09-27T20:12:44.190Z,3.27
2018-09-27T20:15:12.972Z,4.43
2018-09-27T20:17:41.884Z,4.67
2018-09-27T20:20:15.789Z,4.13
2018-09-27T20:22:44.637Z,7.97
2018-09-27T20:25:13.634Z,3.40
2018-09-27T20:27:42.524Z,4.57
2018-09-27T20:30:11.849Z,4.93
2018-09-27T20:32:43.050Z,4.83
2018-09-27T20:35:12.056Z,4.23
2018-09-27T20:37:40.980Z,4.83
2018-09-27T20:40:09.970Z,5.20
2018-09-27T20:42:44.621Z,6.43
2018-09-27T20:45:13.469Z,4.33
2018-09-27T20:47:42.535Z,6.63
2018-09-27T20:50:11.488Z,6.53
2018-09-27T20:52:40.484Z,8.27
2018-09-27T20:55:13.744Z,6.53
2018-09-27T20:57:42.616Z,5.80
2018-09-27T21:00:11.654Z,4.90
2018-09-27T21:02:41.805Z,7.00
2018-09-27T21:05:10.781Z,5.10
2018-09-27T21:07:39.920Z,5.77
2018-09-27T21:10:08.723Z,4.60
2018-09-27T21:12:37.656Z,7.33
2018-09-27T21:15:07.161Z,6.53
2018-09-27T21:17:36.367Z,5.63
2018-09-27T21:20:05.463Z,7.40
2018-09-27T21:22:34.402Z,6.17
2018-09-27T21:25:03.433Z,6.17
2018-09-27T21:27:32.432Z,6.63
2018-09-27T21:30:02.549Z,7.60
2018-09-27T21:32:31.497Z,9.70
2018-09-27T21:35:00.497Z,5.73
2018-09-27T21:37:29.499Z,10.57
2018-09-27T21:39:58.524Z,5.00
2018-09-27T21:42:27.321Z,6.83
2018-09-27T21:44:56.250Z,6.53
2018-09-27T21:47:25.281Z,5.70
2018-09-27T21:49:54.173Z,5.67
2018-09-27T21:52:26.773Z,7.93
2018-09-27T21:54:55.771Z,6.33
2018-09-27T21:57:24.827Z,8.03
2018-09-27T21:59:53.860Z,7.10
2018-09-27T22:02:22.960Z,5.37
2018-09-27T22:04:51.901Z,5.93
2018-09-27T22:07:20.898Z,9.13
2018-09-27T22:09:49.796Z,9.93
2018-09-27T22:12:18.720Z,8.57
2018-09-27T22:14:47.726Z,9.63
2018-09-27T22:17:16.658Z,9.47
2018-09-27T22:19:45.663Z,12.67
2018-09-27T22:22:14.568Z,11.73
2018-09-27T22:24:43.340Z,7.83
2018-09-27T22:27:12.242Z,8.30
2018-09-27T22:29:41.119Z,6.77
2018-09-27T22:32:10.157Z,7.00
2018-09-27T22:34:39.065Z,7.33
2018-09-27T22:37:08.360Z,8.77
2018-09-27T22:39:37.195Z,10.87
2018-09-27T22:42:06.189Z,7.67
2018-09-27T22:44:34.996Z,12.93
2018-09-27T22:47:04.129Z,8.17
2018-09-27T22:49:33.220Z,7.27
2018-09-27T22:52:02.418Z,9.43
2018-09-27T22:54:31.279Z,6.57
2018-09-27T22:57:00.147Z,6.90
2018-09-27T22:59:28.988Z,7.20
2018-09-27T23:01:57.829Z,8.33
2018-09-27T23:04:26.738Z,4.90
2018-09-27T23:06:55.627Z,4.77
2018-09-27T23:09:24.553Z,4.63
2018-09-27T23:11:53.658Z,5.43
2018-09-27T23:14:22.583Z,3.93
2018-09-27T23:16:51.602Z,13.50
2018-09-27T23:19:20.479Z,6.60
2018-09-27T23:21:49.293Z,5.53
2018-09-27T23:24:18.059Z,9.73
2018-09-27T23:26:47.414Z,7.47
2018-09-27T23:29:16.611Z,9.00
2018-09-27T23:31:45.698Z,7.60
2018-09-27T23:34:26.265Z,6.17
2018-09-27T23:36:55.112Z,6.07
2018-09-27T23:39:23.918Z,5.43
2018-09-27T23:41:52.829Z,8.13
2018-09-27T23:44:21.735Z,6.13
2018-09-27T23:46:50.720Z,7.50
2018-09-27T23:49:19.718Z,5.73
2018-09-27T23:51:48.734Z,8.40
2018-09-27T23:54:17.906Z,6.23
2018-09-27T23:56:46.901Z,10.60
2018-09-27T23:59:15.898Z,9.80
